Time;durP1;ratioP1;P1;durP2;ratioP2;P2;SDS_P1;SDS_P2;PMS_P1;PMS_P2;Temp;Humidity;BMP_temperature;BMP_pressure;BME280_temperature;BME280_humidity;BME280_pressure;Samples;Min_cycle;Max_cycle;Signal;HPM_P1;HPM_P2
2023/05/15 00:00:46;;;;;;;0.10;0.10;;;;;;;;;;5075816;28;20043;-78
2023/05/15 00:03:11;;;;;;;0.20;0.20;;;;;;;;;;5075703;28;20027;-79
2023/05/15 00:05:36;;;;;;;0.10;0.10;;;;;;;;;;5094036;28;20040;-79
2023/05/15 00:08:02;;;;;;;0.20;0.20;;;;;;;;;;5093944;28;20028;-79
2023/05/15 00:10:27;;;;;;;0.17;0.17;;;;;;;;;;5093913;28;20024;-83
2023/05/15 00:12:53;;;;;;;0.45;0.45;;;;;;;;;;5075971;28;20036;-79
2023/05/15 00:15:19;;;;;;;0.10;0.10;;;;;;;;;;5093644;28;20444;-82
2023/05/15 00:17:44;;;;;;;0.10;0.10;;;;;;;;;;5093513;28;20142;-82
2023/05/15 00:20:10;;;;;;;0.20;0.20;;;;;;;;;;5092645;28;20483;-82
2023/05/15 00:22:35;;;;;;;0.17;0.17;;;;;;;;;;5093644;28;20067;-82
2023/05/15 00:25:01;;;;;;;0.20;0.20;;;;;;;;;;5093797;28;20073;-82
2023/05/15 00:27:26;;;;;;;0.32;0.32;;;;;;;;;;5093458;28;20035;-83
2023/05/15 00:29:52;;;;;;;0.10;0.10;;;;;;;;;;5092244;28;20032;-82
2023/05/15 00:32:17;;;;;;;0.10;0.10;;;;;;;;;;5093199;28;20028;-82
2023/05/15 00:34:43;;;;;;;0.10;0.10;;;;;;;;;;5093597;28;20039;-82
2023/05/15 00:37:08;;;;;;;0.20;0.20;;;;;;;;;;5093063;28;20039;-79
2023/05/15 00:39:35;;;;;;;0.45;0.43;;;;;;;;;;5093509;28;20032;-84
2023/05/15 00:42:01;;;;;;;0.10;0.10;;;;;;;;;;5093375;28;20093;-80
2023/05/15 00:44:27;;;;;;;0.47;0.47;;;;;;;;;;5073526;28;20039;-80
2023/05/15 00:46:53;;;;;;;0.10;0.10;;;;;;;;;;5092859;28;20046;-79
2023/05/15 00:49:20;;;;;;;0.68;0.68;;;;;;;;;;5075477;28;20044;-79
2023/05/15 00:51:46;;;;;;;0.10;0.10;;;;;;;;;;5093378;28;20053;-80
2023/05/15 00:54:11;;;;;;;0.10;0.10;;;;;;;;;;5075022;28;20040;-80
2023/05/15 00:56:36;;;;;;;0.10;0.10;;;;;;;;;;5074892;28;20109;-77
2023/05/15 00:59:02;;;;;;;0.17;0.17;;;;;;;;;;5092545;28;20036;-76
2023/05/15 01:01:32;;;;;;;8.20;7.65;;;;;;;;;;5074036;28;20040;-77
2023/05/15 01:03:58;;;;;;;1.17;1.15;;;;;;;;;;5091830;28;20074;-76
2023/05/15 01:06:23;;;;;;;0.10;0.10;;;;;;;;;;5074638;28;20063;-76
2023/05/15 01:08:49;;;;;;;0.10;0.10;;;;;;;;;;5074645;28;20036;-76
2023/05/15 01:11:15;;;;;;;0.13;0.13;;;;;;;;;;5057943;28;20119;-77
2023/05/15 01:13:41;;;;;;;0.10;0.10;;;;;;;;;;5074620;28;20123;-76
2023/05/15 01:16:06;;;;;;;0.10;0.10;;;;;;;;;;5074359;28;20444;-76
2023/05/15 01:18:32;;;;;;;0.10;0.10;;;;;;;;;;5074704;28;20036;-76
2023/05/15 01:21:04;;;;;;;0.60;0.60;;;;;;;;;;5092820;28;20051;-77
2023/05/15 01:23:32;;;;;;;0.10;0.10;;;;;;;;;;5092743;28;20479;-80
2023/05/15 01:26:10;;;;;;;0.10;0.10;;;;;;;;;;5095468;28;20387;-80
2023/05/15 01:28:38;;;;;;;0.20;0.20;;;;;;;;;;5079520;28;20036;-78
2023/05/15 01:31:07;;;;;;;0.10;0.10;;;;;;;;;;5079600;28;20184;-79
2023/05/15 01:33:37;;;;;;;0.10;0.10;;;;;;;;;;5075548;28;20537;-79
2023/05/15 01:36:04;;;;;;;0.10;0.10;;;;;;;;;;5093245;28;20043;-79
2023/05/15 01:38:33;;;;;;;0.10;0.10;;;;;;;;;;5074894;28;20020;-79
2023/05/15 01:41:06;;;;;;;0.10;0.10;;;;;;;;;;5092590;28;20032;-80
2023/05/15 01:43:34;;;;;;;0.10;0.10;;;;;;;;;;5092783;28;20067;-76
2023/05/15 01:46:00;;;;;;;0.10;0.10;;;;;;;;;;5092646;28;20030;-77
2023/05/15 01:48:27;;;;;;;0.10;0.10;;;;;;;;;;5091410;28;20028;-76
2023/05/15 01:50:58;;;;;;;0.10;0.10;;;;;;;;;;5074370;28;20036;-77
2023/05/15 01:53:25;;;;;;;0.10;0.10;;;;;;;;;;5074279;28;20040;-76
2023/05/15 01:55:51;;;;;;;0.10;0.10;;;;;;;;;;5092355;28;20048;-79
2023/05/15 01:58:17;;;;;;;0.10;0.10;;;;;;;;;;5057725;28;20081;-80
2023/05/15 02:00:43;;;;;;;0.10;0.10;;;;;;;;;;5092435;28;20066;-80
2023/05/15 02:03:09;;;;;;;0.10;0.10;;;;;;;;;;5074235;28;20032;-80
2023/05/15 02:05:35;;;;;;;0.10;0.10;;;;;;;;;;5073393;28;20375;-80
2023/05/15 02:08:04;;;;;;;0.10;0.10;;;;;;;;;;5074141;28;20028;-80
2023/05/15 02:10:30;;;;;;;0.10;0.10;;;;;;;;;;5074189;28;20056;-80
2023/05/15 02:12:55;;;;;;;0.10;0.10;;;;;;;;;;5078065;28;20113;-80
2023/05/15 02:15:22;;;;;;;0.10;0.10;;;;;;;;;;5095811;28;20422;-80
2023/05/15 02:17:47;;;;;;;0.10;0.10;;;;;;;;;;5077301;28;20103;-80
2023/05/15 02:20:13;;;;;;;0.10;0.10;;;;;;;;;;5077598;28;20119;-79
2023/05/15 02:22:38;;;;;;;0.10;0.10;;;;;;;;;;5060886;28;20024;-80
2023/05/15 02:25:04;;;;;;;0.10;0.10;;;;;;;;;;5095448;28;20042;-78
2023/05/15 02:27:38;;;;;;;0.10;0.10;;;;;;;;;;5077277;28;20035;-80
2023/05/15 02:30:12;;;;;;;0.10;0.10;;;;;;;;;;5095553;28;20423;-82
2023/05/15 02:32:37;;;;;;;0.10;0.10;;;;;;;;;;5094291;28;20028;-84
2023/05/15 02:35:26;;;;;;;0.10;0.10;;;;;;;;;;5082575;28;20078;-82
2023/05/15 02:37:53;;;;;;;0.10;0.10;;;;;;;;;;5067138;28;20041;-82
2023/05/15 02:40:19;;;;;;;0.10;0.10;;;;;;;;;;5056955;28;20060;-82
2023/05/15 02:42:46;;;;;;;0.10;0.10;;;;;;;;;;5075046;28;20522;-83
2023/05/15 02:45:11;;;;;;;0.10;0.10;;;;;;;;;;5057002;28;20068;-82
2023/05/15 02:47:37;;;;;;;0.10;0.10;;;;;;;;;;5074796;28;20068;-83
2023/05/15 02:50:03;;;;;;;0.10;0.10;;;;;;;;;;5074778;28;20089;-81
2023/05/15 02:56:01;;;;;;;0.10;0.10;;;;;;;;;;5074729;28;20040;-82
2023/05/15 02:58:26;;;;;;;0.20;0.20;;;;;;;;;;5074759;28;20037;-81
2023/05/15 03:00:52;;;;;;;0.10;0.10;;;;;;;;;;5058750;28;20173;-82
2023/05/15 03:03:17;;;;;;;0.10;0.10;;;;;;;;;;5071447;28;20028;-83
2023/05/15 03:05:43;;;;;;;0.10;0.10;;;;;;;;;;5067592;28;20039;-78
2023/05/15 03:08:08;;;;;;;9.73;7.57;;;;;;;;;;5065293;28;20028;-79
2023/05/15 03:10:33;;;;;;;0.10;0.10;;;;;;;;;;5082615;28;20036;-81
2023/05/15 03:12:59;;;;;;;0.40;0.40;;;;;;;;;;5090628;28;20028;-79
2023/05/15 03:15:24;;;;;;;0.10;0.10;;;;;;;;;;5087491;28;20484;-78
2023/05/15 03:17:50;;;;;;;0.10;0.10;;;;;;;;;;5090761;28;20406;-78
2023/05/15 03:20:15;;;;;;;0.10;0.10;;;;;;;;;;5068787;28;20466;-77
2023/05/15 03:22:41;;;;;;;0.20;0.20;;;;;;;;;;5069673;28;20032;-76
2023/05/15 03:25:08;;;;;;;0.10;0.10;;;;;;;;;;5072309;28;20067;-76
2023/05/15 03:27:33;;;;;;;0.10;0.10;;;;;;;;;;5070477;28;20036;-77
2023/05/15 03:29:58;;;;;;;0.10;0.10;;;;;;;;;;5069812;28;20036;-79
2023/05/15 03:32:24;;;;;;;0.10;0.10;;;;;;;;;;5090135;28;20042;-79
2023/05/15 03:34:49;;;;;;;0.10;0.10;;;;;;;;;;5090391;28;20156;-78
2023/05/15 03:37:15;;;;;;;0.10;0.10;;;;;;;;;;5093773;28;20303;-80
2023/05/15 03:39:40;;;;;;;0.10;0.10;;;;;;;;;;5095112;28;20024;-79
2023/05/15 03:42:06;;;;;;;0.17;0.17;;;;;;;;;;5094267;28;20093;-79
2023/05/15 03:44:32;;;;;;;0.10;0.10;;;;;;;;;;5090610;28;20059;-80
2023/05/15 03:46:57;;;;;;;0.10;0.10;;;;;;;;;;5070763;28;20151;-80
2023/05/15 03:49:23;;;;;;;0.10;0.10;;;;;;;;;;5071360;28;20032;-77
2023/05/15 03:51:48;;;;;;;0.10;0.10;;;;;;;;;;5071839;28;20028;-78
2023/05/15 03:54:13;;;;;;;0.10;0.10;;;;;;;;;;5089047;28;20121;-78
2023/05/15 03:56:39;;;;;;;0.10;0.10;;;;;;;;;;5071936;28;20036;-77
2023/05/15 03:59:04;;;;;;;0.10;0.10;;;;;;;;;;5087241;28;20105;-86
2023/05/15 04:01:30;;;;;;;0.10;0.10;;;;;;;;;;5080922;28;20031;-83
2023/05/15 04:03:55;;;;;;;0.10;0.10;;;;;;;;;;5068217;28;20059;-85
2023/05/15 04:06:21;;;;;;;0.10;0.10;;;;;;;;;;5068864;28;20032;-83
2023/05/15 04:08:47;;;;;;;0.10;0.10;;;;;;;;;;5067618;28;20064;-79
2023/05/15 04:11:12;;;;;;;0.10;0.10;;;;;;;;;;5067716;28;20476;-79
2023/05/15 04:13:38;;;;;;;0.10;0.10;;;;;;;;;;5068025;28;20036;-82
2023/05/15 04:16:03;;;;;;;0.10;0.10;;;;;;;;;;5067320;28;20043;-78
2023/05/15 04:18:29;;;;;;;0.10;0.10;;;;;;;;;;5067845;28;20040;-82
2023/05/15 04:20:54;;;;;;;0.10;0.10;;;;;;;;;;5067967;28;20028;-79
2023/05/15 04:23:20;;;;;;;0.10;0.10;;;;;;;;;;5069651;28;20019;-85
2023/05/15 04:25:45;;;;;;;0.10;0.10;;;;;;;;;;5069437;28;20036;-77
2023/05/15 04:28:11;;;;;;;0.10;0.10;;;;;;;;;;5051239;28;20396;-84
2023/05/15 04:30:37;;;;;;;0.10;0.10;;;;;;;;;;5051372;28;20076;-84
2023/05/15 04:33:02;;;;;;;0.10;0.10;;;;;;;;;;5069604;28;20040;-81
2023/05/15 04:35:28;;;;;;;0.10;0.10;;;;;;;;;;5051465;28;20410;-85
2023/05/15 04:37:53;;;;;;;0.10;0.10;;;;;;;;;;5065291;28;20040;-80
2023/05/15 04:40:19;;;;;;;0.10;0.10;;;;;;;;;;5089297;28;20068;-79
2023/05/15 04:42:44;;;;;;;0.10;0.10;;;;;;;;;;5088423;28;20031;-77
2023/05/15 04:45:09;;;;;;;0.20;0.20;;;;;;;;;;5087418;28;20035;-80
2023/05/15 04:47:35;;;;;;;0.52;0.30;;;;;;;;;;5067525;28;20387;-80
2023/05/15 04:50:01;;;;;;;0.10;0.10;;;;;;;;;;5079597;28;20036;-79
2023/05/15 04:52:27;;;;;;;0.10;0.10;;;;;;;;;;5069995;28;20539;-78
2023/05/15 04:54:54;;;;;;;0.10;0.10;;;;;;;;;;5087257;28;20041;-77
2023/05/15 04:57:20;;;;;;;0.10;0.10;;;;;;;;;;5050176;28;20036;-80
2023/05/15 04:59:45;;;;;;;0.10;0.10;;;;;;;;;;5065121;28;20047;-76
2023/05/15 05:02:11;;;;;;;0.10;0.10;;;;;;;;;;5078771;28;20127;-78
2023/05/15 05:04:36;;;;;;;0.10;0.10;;;;;;;;;;5068707;28;20056;-79
2023/05/15 05:07:04;;;;;;;0.10;0.10;;;;;;;;;;5078999;28;20127;-80
2023/05/15 05:09:30;;;;;;;0.52;0.52;;;;;;;;;;5069541;28;20040;-79
2023/05/15 05:11:57;;;;;;;0.10;0.10;;;;;;;;;;5082676;28;20024;-79
2023/05/15 05:14:23;;;;;;;0.35;0.35;;;;;;;;;;5088596;28;20574;-78
2023/05/15 05:16:48;;;;;;;0.10;0.10;;;;;;;;;;5084628;28;20068;-79
2023/05/15 05:19:14;;;;;;;0.10;0.10;;;;;;;;;;5089115;28;20114;-79
2023/05/15 05:21:39;;;;;;;0.10;0.10;;;;;;;;;;5065554;28;20503;-79
2023/05/15 05:24:04;;;;;;;0.10;0.10;;;;;;;;;;5085461;28;20382;-79
2023/05/15 05:26:30;;;;;;;0.10;0.10;;;;;;;;;;5087878;28;20081;-79
2023/05/15 05:28:55;;;;;;;0.10;0.10;;;;;;;;;;5084192;28;20033;-80
2023/05/15 05:31:21;;;;;;;0.10;0.10;;;;;;;;;;5077306;28;20048;-79
2023/05/15 05:33:48;;;;;;;0.10;0.10;;;;;;;;;;5072636;28;20101;-79
2023/05/15 05:36:13;;;;;;;0.10;0.10;;;;;;;;;;5070649;28;20036;-80
2023/05/15 05:38:39;;;;;;;0.10;0.10;;;;;;;;;;5084188;28;20081;-80
2023/05/15 05:41:04;;;;;;;0.10;0.10;;;;;;;;;;5067194;28;20694;-79
2023/05/15 05:43:30;;;;;;;0.10;0.10;;;;;;;;;;5067027;28;20040;-79
2023/05/15 05:45:55;;;;;;;0.10;0.10;;;;;;;;;;5087347;28;20080;-70
2023/05/15 05:48:20;;;;;;;0.10;0.10;;;;;;;;;;5085183;28;20032;-71
2023/05/15 05:50:46;;;;;;;0.20;0.20;;;;;;;;;;5072971;28;20032;-72
2023/05/15 05:53:11;;;;;;;0.10;0.10;;;;;;;;;;5073382;28;20032;-70
2023/05/15 05:55:37;;;;;;;0.10;0.10;;;;;;;;;;5054330;28;20033;-70
2023/05/15 05:58:02;;;;;;;13.13;1.10;;;;;;;;;;5081597;28;20115;-70
2023/05/15 06:00:28;;;;;;;0.30;0.30;;;;;;;;;;5055522;28;20479;-71
2023/05/15 06:02:54;;;;;;;0.20;0.20;;;;;;;;;;5053652;28;20033;-71
2023/05/15 06:05:22;;;;;;;0.10;0.10;;;;;;;;;;5037268;28;20029;-71
2023/05/15 06:07:47;;;;;;;1.13;0.57;;;;;;;;;;5071515;28;20040;-75
2023/05/15 06:10:13;;;;;;;0.20;0.20;;;;;;;;;;5053524;28;20117;-70
2023/05/15 06:12:38;;;;;;;2.78;1.67;;;;;;;;;;5053589;28;20043;-71
2023/05/15 06:15:04;;;;;;;0.20;0.20;;;;;;;;;;5071316;28;20124;-75
2023/05/15 06:17:29;;;;;;;1.17;1.17;;;;;;;;;;5053113;28;20029;-69
2023/05/15 06:19:55;;;;;;;0.20;0.20;;;;;;;;;;5071013;28;20384;-71
2023/05/15 06:22:20;;;;;;;0.17;0.17;;;;;;;;;;5071042;28;20119;-72
2023/05/15 06:24:46;;;;;;;0.20;0.20;;;;;;;;;;5071228;28;20110;-70
2023/05/15 06:27:11;;;;;;;0.20;0.20;;;;;;;;;;5071119;28;20064;-71
2023/05/15 06:29:36;;;;;;;0.82;0.50;;;;;;;;;;5070927;28;20039;-74
2023/05/15 06:32:02;;;;;;;0.65;0.65;;;;;;;;;;5052461;28;20490;-70
2023/05/15 06:34:27;;;;;;;0.28;0.28;;;;;;;;;;5070986;28;20035;-70
2023/05/15 06:36:52;;;;;;;1.55;1.20;;;;;;;;;;5053117;28;20076;-71
2023/05/15 06:39:18;;;;;;;0.10;0.10;;;;;;;;;;5070632;28;20045;-72
2023/05/15 06:41:43;;;;;;;0.20;0.20;;;;;;;;;;5073500;28;20122;-70
2023/05/15 06:44:11;;;;;;;0.47;0.40;;;;;;;;;;5062823;28;20036;-69
2023/05/15 06:46:36;;;;;;;0.20;0.20;;;;;;;;;;5060972;28;20647;-70
2023/05/15 06:49:02;;;;;;;0.20;0.20;;;;;;;;;;5081279;28;20028;-70
2023/05/15 06:51:27;;;;;;;0.20;0.20;;;;;;;;;;5079895;28;20087;-73
2023/05/15 06:53:52;;;;;;;0.20;0.20;;;;;;;;;;5079532;28;20028;-70
2023/05/15 06:56:18;;;;;;;0.63;0.30;;;;;;;;;;5063581;28;20036;-70
2023/05/15 06:58:43;;;;;;;0.20;0.20;;;;;;;;;;5079635;28;20028;-69
2023/05/15 07:01:09;;;;;;;0.20;0.20;;;;;;;;;;5062556;28;20055;-70
2023/05/15 07:03:34;;;;;;;0.20;0.20;;;;;;;;;;5060893;28;20391;-70
2023/05/15 07:06:00;;;;;;;0.20;0.20;;;;;;;;;;5080512;28;20024;-72
2023/05/15 07:08:25;;;;;;;0.25;0.25;;;;;;;;;;5080462;28;20052;-70
2023/05/15 07:10:52;;;;;;;0.20;0.20;;;;;;;;;;5081967;28;20040;-70
2023/05/15 07:13:19;;;;;;;0.20;0.20;;;;;;;;;;5055899;28;20032;-70
2023/05/15 07:15:44;;;;;;;4.47;0.50;;;;;;;;;;5084240;28;20071;-70
2023/05/15 07:18:10;;;;;;;0.20;0.20;;;;;;;;;;5061744;28;20490;-69
2023/05/15 07:20:35;;;;;;;0.25;0.25;;;;;;;;;;5062161;28;20028;-70
2023/05/15 07:23:02;;;;;;;0.20;0.20;;;;;;;;;;5070863;28;20025;-70
2023/05/15 07:25:27;;;;;;;0.17;0.17;;;;;;;;;;5070002;28;20043;-70
2023/05/15 07:27:53;;;;;;;0.20;0.20;;;;;;;;;;5069698;28;20032;-71
2023/05/15 07:30:18;;;;;;;0.20;0.20;;;;;;;;;;5085044;28;20031;-69
2023/05/15 07:32:43;;;;;;;0.20;0.20;;;;;;;;;;5053162;28;20503;-70
2023/05/15 07:35:10;;;;;;;0.20;0.20;;;;;;;;;;5071098;28;20506;-71
2023/05/15 07:37:36;;;;;;;0.30;0.30;;;;;;;;;;5052350;28;20474;-70
2023/05/15 07:40:01;;;;;;;0.30;0.30;;;;;;;;;;5071743;28;20039;-71
2023/05/15 07:42:27;;;;;;;0.17;0.17;;;;;;;;;;5069375;28;20124;-70
2023/05/15 07:44:52;;;;;;;0.20;0.20;;;;;;;;;;5037643;28;20036;-74
2023/05/15 07:47:18;;;;;;;0.25;0.25;;;;;;;;;;5077792;28;20375;-70
2023/05/15 07:49:43;;;;;;;0.20;0.20;;;;;;;;;;5084464;28;20463;-69
2023/05/15 07:52:08;;;;;;;0.20;0.20;;;;;;;;;;5086805;28;20039;-71
2023/05/15 07:54:34;;;;;;;0.30;0.30;;;;;;;;;;5075932;28;20498;-70
2023/05/15 07:56:59;;;;;;;0.32;0.32;;;;;;;;;;5064162;28;20040;-70
2023/05/15 07:59:25;;;;;;;0.20;0.20;;;;;;;;;;5093279;28;20038;-71
2023/05/15 08:01:50;;;;;;;0.10;0.10;;;;;;;;;;5073273;28;20499;-70
2023/05/15 08:04:16;;;;;;;0.20;0.20;;;;;;;;;;5089951;28;20031;-70
2023/05/15 08:06:41;;;;;;;0.20;0.20;;;;;;;;;;5088890;28;20103;-73
2023/05/15 08:09:08;;;;;;;0.20;0.20;;;;;;;;;;5088394;28;20085;-70
2023/05/15 08:11:33;;;;;;;0.20;0.20;;;;;;;;;;5070156;28;20554;-70
2023/05/15 08:13:59;;;;;;;0.20;0.20;;;;;;;;;;5070144;28;20115;-70
2023/05/15 08:16:24;;;;;;;0.20;0.20;;;;;;;;;;5089163;28;20546;-70
2023/05/15 08:18:52;;;;;;;0.20;0.20;;;;;;;;;;5053182;28;20044;-71
2023/05/15 08:21:17;;;;;;;0.13;0.13;;;;;;;;;;5052833;28;20073;-70
2023/05/15 08:23:43;;;;;;;0.10;0.10;;;;;;;;;;5087888;28;20036;-70
2023/05/15 08:26:08;;;;;;;0.20;0.20;;;;;;;;;;5087582;28;20111;-70
2023/05/15 08:28:34;;;;;;;0.20;0.20;;;;;;;;;;5087215;28;20428;-70
2023/05/15 08:30:59;;;;;;;0.20;0.20;;;;;;;;;;5087537;28;20322;-69
2023/05/15 08:33:24;;;;;;;0.20;0.20;;;;;;;;;;5053908;28;20028;-69
2023/05/15 08:35:50;;;;;;;0.20;0.20;;;;;;;;;;5089136;28;20391;-70
2023/05/15 08:38:16;;;;;;;0.20;0.20;;;;;;;;;;5089613;28;20044;-69
2023/05/15 08:40:44;;;;;;;0.17;0.17;;;;;;;;;;5089444;28;20454;-69
2023/05/15 08:43:15;;;;;;;0.20;0.20;;;;;;;;;;5071147;28;20035;-69
2023/05/15 08:45:40;;;;;;;0.20;0.20;;;;;;;;;;5071210;28;20392;-69
2023/05/15 08:48:13;;;;;;;0.20;0.20;;;;;;;;;;5070842;28;20043;-73
2023/05/15 08:50:39;;;;;;;0.20;0.20;;;;;;;;;;5089138;28;20032;-69
2023/05/15 08:53:04;;;;;;;0.30;0.30;;;;;;;;;;5089104;28;20035;-69
2023/05/15 08:55:30;;;;;;;0.20;0.20;;;;;;;;;;5088857;28;20418;-69
2023/05/15 08:57:56;;;;;;;0.20;0.20;;;;;;;;;;5088892;28;20036;-69
2023/05/15 09:00:22;;;;;;;0.20;0.20;;;;;;;;;;5070581;28;20032;-68
2023/05/15 09:02:47;;;;;;;0.20;0.20;;;;;;;;;;5089156;28;20028;-73
2023/05/15 09:05:13;;;;;;;0.20;0.20;;;;;;;;;;5088930;28;20028;-71
2023/05/15 09:07:40;;;;;;;0.20;0.20;;;;;;;;;;5070837;28;20039;-70
2023/05/15 09:10:06;;;;;;;0.20;0.20;;;;;;;;;;5053935;28;20028;-71
2023/05/15 09:12:33;;;;;;;0.20;0.20;;;;;;;;;;5053914;28;20032;-73
2023/05/15 09:15:09;;;;;;;0.20;0.20;;;;;;;;;;5070648;28;20032;-71
2023/05/15 09:17:35;;;;;;;0.20;0.20;;;;;;;;;;5070770;28;20494;-71
2023/05/15 09:20:01;;;;;;;0.50;0.40;;;;;;;;;;5088233;28;20040;-71
2023/05/15 09:22:26;;;;;;;0.93;0.80;;;;;;;;;;5056891;28;20545;-71
2023/05/15 09:24:51;;;;;;;0.20;0.20;;;;;;;;;;5092475;28;20031;-73
2023/05/15 09:27:18;;;;;;;0.30;0.30;;;;;;;;;;5092029;28;20430;-71
2023/05/15 09:29:44;;;;;;;0.20;0.20;;;;;;;;;;5057879;28;20055;-71
2023/05/15 09:32:10;;;;;;;0.20;0.20;;;;;;;;;;5092211;28;20036;-73
2023/05/15 09:34:37;;;;;;;0.20;0.20;;;;;;;;;;5092296;28;20043;-70
2023/05/15 09:37:03;;;;;;;0.20;0.20;;;;;;;;;;5057414;28;20039;-70
2023/05/15 09:39:29;;;;;;;0.47;0.40;;;;;;;;;;5074087;28;20040;-70
2023/05/15 09:42:07;;;;;;;0.20;0.20;;;;;;;;;;5091662;28;20024;-71
2023/05/15 09:44:33;;;;;;;0.20;0.20;;;;;;;;;;5056541;28;20032;-71
2023/05/15 09:46:59;;;;;;;0.50;0.50;;;;;;;;;;5073337;28;20026;-73
2023/05/15 09:49:27;;;;;;;0.30;0.30;;;;;;;;;;5073127;28;20036;-69
2023/05/15 09:51:54;;;;;;;0.20;0.20;;;;;;;;;;5056998;28;20380;-69
2023/05/15 09:54:22;;;;;;;0.20;0.20;;;;;;;;;;5091812;28;20020;-69
2023/05/15 09:56:47;;;;;;;0.22;0.22;;;;;;;;;;5091608;28;20059;-69
2023/05/15 09:59:14;;;;;;;0.20;0.20;;;;;;;;;;5057198;28;20518;-70
2023/05/15 10:01:50;;;;;;;0.28;0.28;;;;;;;;;;5057250;28;20062;-70
2023/05/15 10:04:16;;;;;;;0.30;0.30;;;;;;;;;;5057101;28;20036;-69
2023/05/15 10:06:42;;;;;;;0.73;0.73;;;;;;;;;;5092533;28;20054;-69
2023/05/15 10:09:09;;;;;;;0.20;0.20;;;;;;;;;;5091918;28;20040;-70
2023/05/15 10:11:49;;;;;;;0.30;0.30;;;;;;;;;;5073667;28;20433;-71
2023/05/15 10:14:14;;;;;;;;;;;;;;;;;;5074063;28;20044;-69
2023/05/15 10:16:40;;;;;;;0.20;0.20;;;;;;;;;;5091626;28;19919;-69
2023/05/15 10:19:08;;;;;;;0.20;0.20;;;;;;;;;;5091564;28;20032;-72
2023/05/15 10:21:34;;;;;;;0.20;0.20;;;;;;;;;;5073752;28;20483;-69
2023/05/15 10:24:01;;;;;;;0.20;0.20;;;;;;;;;;5091094;28;20024;-69
2023/05/15 10:26:57;;;;;;;0.20;0.20;;;;;;;;;;5056594;28;20062;-69
2023/05/15 10:29:25;;;;;;;0.22;0.22;;;;;;;;;;5056723;28;20503;-70
2023/05/15 10:31:51;;;;;;;0.20;0.20;;;;;;;;;;5056425;28;20487;-69
2023/05/15 10:34:17;;;;;;;0.20;0.20;;;;;;;;;;5069568;28;20081;-70
2023/05/15 10:36:43;;;;;;;0.20;0.20;;;;;;;;;;5055677;28;20044;-77
2023/05/15 10:39:09;;;;;;;0.20;0.20;;;;;;;;;;5073086;28;20421;-77
2023/05/15 10:41:35;;;;;;;0.30;0.30;;;;;;;;;;5090269;28;20084;-77
2023/05/15 10:44:01;;;;;;;0.20;0.20;;;;;;;;;;5090275;28;20032;-77
2023/05/15 10:46:27;;;;;;;0.20;0.20;;;;;;;;;;5090174;28;20024;-77
2023/05/15 10:48:53;;;;;;;0.28;0.28;;;;;;;;;;5090316;28;20056;-77
2023/05/15 10:51:28;;;;;;;0.20;0.20;;;;;;;;;;5090190;28;20066;-77
2023/05/15 10:53:54;;;;;;;0.20;0.20;;;;;;;;;;5089883;28;20032;-77
2023/05/15 10:56:20;;;;;;;0.20;0.20;;;;;;;;;;5090052;28;20067;-77
2023/05/15 10:58:46;;;;;;;0.20;0.20;;;;;;;;;;5071657;28;20063;-77
2023/05/15 11:01:25;;;;;;;0.20;0.20;;;;;;;;;;5090433;28;20559;-77
2023/05/15 11:03:51;;;;;;;;;;;;;;;;;;5073422;28;20086;-78
2023/05/15 11:06:26;;;;;;;0.20;0.20;;;;;;;;;;5090881;28;19908;-77
2023/05/15 11:09:12;;;;;;;0.20;0.20;;;;;;;;;;5090223;28;20273;-77
2023/05/15 11:11:56;;;;;;;0.40;0.40;;;;;;;;;;5090496;28;20059;-77
2023/05/15 11:14:25;;;;;;;0.15;0.15;;;;;;;;;;5090858;28;20085;-78
2023/05/15 11:16:53;;;;;;;0.30;0.30;;;;;;;;;;5091295;28;20078;-77
2023/05/15 11:19:25;;;;;;;0.20;0.20;;;;;;;;;;5091290;28;20454;-78
2023/05/15 11:21:55;;;;;;;0.20;0.20;;;;;;;;;;5081681;28;20041;-79
2023/05/15 11:24:25;;;;;;;0.30;0.30;;;;;;;;;;5076510;28;20453;-77
2023/05/15 11:26:58;;;;;;;0.30;0.30;;;;;;;;;;5066101;28;20399;-79
2023/05/15 11:29:23;;;;;;;0.30;0.30;;;;;;;;;;5088206;28;20028;-79
2023/05/15 11:31:49;;;;;;;0.20;0.20;;;;;;;;;;5077204;28;20096;-77
2023/05/15 11:34:14;;;;;;;0.20;0.20;;;;;;;;;;5068431;28;20024;-77
2023/05/15 11:36:42;;;;;;;0.30;0.30;;;;;;;;;;5089628;28;20052;-79
2023/05/15 11:39:11;;;;;;;0.20;0.20;;;;;;;;;;5043633;28;20020;-78
2023/05/15 11:41:38;;;;;;;0.20;0.20;;;;;;;;;;5081221;28;20032;-80
2023/05/15 11:44:03;;;;;;;0.10;0.10;;;;;;;;;;5082751;28;20147;-79
2023/05/15 11:46:29;;;;;;;0.20;0.20;;;;;;;;;;5084353;28;20120;-79
2023/05/15 11:48:55;;;;;;;0.15;0.15;;;;;;;;;;5071364;28;20064;-79
2023/05/15 11:51:24;;;;;;;0.20;0.20;;;;;;;;;;5083702;28;20063;-80
2023/05/15 11:53:49;;;;;;;;;;;;;;;;;;5064054;28;20488;-80
2023/05/15 11:56:19;;;;;;;0.20;0.20;;;;;;;;;;5074760;28;19928;-80
2023/05/15 11:58:53;;;;;;;0.20;0.20;;;;;;;;;;5085535;28;20032;-79
2023/05/15 12:01:18;;;;;;;0.20;0.20;;;;;;;;;;5061663;28;20064;-79
2023/05/15 12:03:46;;;;;;;0.30;0.30;;;;;;;;;;5077515;28;20471;-79
2023/05/15 12:06:11;;;;;;;0.20;0.20;;;;;;;;;;5069419;28;20036;-78
2023/05/15 12:08:37;;;;;;;0.20;0.20;;;;;;;;;;5075530;28;20986;-78
2023/05/15 12:11:03;;;;;;;0.50;0.50;;;;;;;;;;5079813;28;20034;-78
2023/05/15 12:13:29;;;;;;;0.22;0.22;;;;;;;;;;5078611;28;20079;-77
2023/05/15 12:15:55;;;;;;;0.40;0.40;;;;;;;;;;5071879;28;20159;-77
2023/05/15 12:18:21;;;;;;;0.10;0.10;;;;;;;;;;5088887;28;20032;-76
2023/05/15 12:20:48;;;;;;;0.40;0.40;;;;;;;;;;5069513;28;20039;-77
2023/05/15 12:23:14;;;;;;;0.20;0.20;;;;;;;;;;5069295;28;20036;-77
2023/05/15 12:25:40;;;;;;;0.20;0.20;;;;;;;;;;5087775;28;20039;-77
2023/05/15 12:28:06;;;;;;;0.20;0.20;;;;;;;;;;5087034;28;20522;-77
2023/05/15 12:30:32;;;;;;;0.20;0.20;;;;;;;;;;5088165;28;20071;-77
2023/05/15 12:32:59;;;;;;;0.38;0.38;;;;;;;;;;5088865;28;20475;-78
2023/05/15 12:35:25;;;;;;;0.20;0.20;;;;;;;;;;5087502;28;20051;-78
2023/05/15 12:37:50;;;;;;;0.20;0.20;;;;;;;;;;5083978;28;20862;-78
2023/05/15 12:40:19;;;;;;;0.20;0.20;;;;;;;;;;5079002;28;20028;-78
2023/05/15 12:42:44;;;;;;;0.28;0.28;;;;;;;;;;5079827;28;20034;-79
2023/05/15 12:45:14;;;;;;;1.50;0.50;;;;;;;;;;5067251;28;20028;-78
2023/05/15 12:47:40;;;;;;;0.30;0.30;;;;;;;;;;5049076;28;20040;-78
2023/05/15 12:50:15;;;;;;;0.20;0.20;;;;;;;;;;5067901;28;20040;-78
2023/05/15 12:52:45;;;;;;;6.30;5.78;;;;;;;;;;5069363;28;20036;-78
2023/05/15 12:55:14;;;;;;;0.20;0.20;;;;;;;;;;5050825;28;20089;-78
2023/05/15 12:57:40;;;;;;;0.20;0.20;;;;;;;;;;5068584;28;20506;-78
2023/05/15 13:00:09;;;;;;;0.20;0.20;;;;;;;;;;5068968;28;20514;-78
2023/05/15 13:02:34;;;;;;;0.20;0.20;;;;;;;;;;5068859;28;20021;-78
2023/05/15 13:05:01;;;;;;;0.28;0.28;;;;;;;;;;5068537;28;20036;-78
2023/05/15 13:07:27;;;;;;;0.20;0.20;;;;;;;;;;5058090;28;20032;-77
2023/05/15 13:10:06;;;;;;;0.20;0.20;;;;;;;;;;5075452;28;20064;-77
2023/05/15 13:12:35;;;;;;;0.20;0.20;;;;;;;;;;5052120;28;20036;-78
2023/05/15 13:15:01;;;;;;;0.20;0.20;;;;;;;;;;5042014;28;20029;-78
2023/05/15 13:17:28;;;;;;;0.20;0.20;;;;;;;;;;5059483;28;20033;-78
2023/05/15 13:19:54;;;;;;;0.30;0.30;;;;;;;;;;5068564;28;20058;-78
2023/05/15 13:22:19;;;;;;;0.20;0.20;;;;;;;;;;5083442;28;20487;-77
2023/05/15 13:24:45;;;;;;;0.20;0.20;;;;;;;;;;5088778;28;20043;-77
2023/05/15 13:27:10;;;;;;;0.20;0.20;;;;;;;;;;5088884;28;20638;-78
2023/05/15 13:29:36;;;;;;;0.20;0.20;;;;;;;;;;5085494;28;20048;-78
2023/05/15 13:32:01;;;;;;;0.30;0.30;;;;;;;;;;5087733;28;20043;-77
2023/05/15 13:34:26;;;;;;;0.20;0.20;;;;;;;;;;5086853;28;20032;-77
2023/05/15 13:36:52;;;;;;;0.20;0.20;;;;;;;;;;5087297;28;20036;-78
2023/05/15 13:39:18;;;;;;;0.20;0.20;;;;;;;;;;5084807;28;20112;-77
2023/05/15 13:41:43;;;;;;;0.20;0.20;;;;;;;;;;5087838;28;20058;-78
2023/05/15 13:44:08;;;;;;;0.20;0.20;;;;;;;;;;5087619;28;20047;-78
2023/05/15 13:46:34;;;;;;;0.20;0.20;;;;;;;;;;5087311;28;20016;-77
2023/05/15 13:48:59;;;;;;;0.20;0.20;;;;;;;;;;5088126;28;20399;-78
2023/05/15 13:51:25;;;;;;;0.20;0.20;;;;;;;;;;5088905;28;20043;-77
2023/05/15 13:53:51;;;;;;;0.20;0.20;;;;;;;;;;5088074;28;20059;-77
2023/05/15 13:56:16;;;;;;;0.10;0.10;;;;;;;;;;5088178;28;20410;-77
2023/05/15 13:58:41;;;;;;;0.20;0.20;;;;;;;;;;5088435;28;20032;-77
2023/05/15 14:01:07;;;;;;;0.20;0.20;;;;;;;;;;5088413;28;20027;-77
2023/05/15 14:03:33;;;;;;;0.55;0.55;;;;;;;;;;5088205;28;20499;-77
2023/05/15 14:05:58;;;;;;;0.20;0.20;;;;;;;;;;5088303;28;20028;-78
2023/05/15 14:08:24;;;;;;;0.20;0.20;;;;;;;;;;5091149;28;20310;-77
2023/05/15 14:10:49;;;;;;;0.22;0.22;;;;;;;;;;5091664;28;20097;-78
2023/05/15 14:13:15;;;;;;;0.20;0.20;;;;;;;;;;5091786;28;20353;-77
2023/05/15 14:15:40;;;;;;;0.20;0.20;;;;;;;;;;5091844;28;20036;-77
2023/05/15 14:18:06;;;;;;;0.20;0.20;;;;;;;;;;5091161;28;20048;-78
2023/05/15 14:20:31;;;;;;;0.20;0.20;;;;;;;;;;5073618;28;20496;-77
2023/05/15 14:22:57;;;;;;;0.20;0.20;;;;;;;;;;5089696;28;20032;-77
2023/05/15 14:25:23;;;;;;;1.85;1.75;;;;;;;;;;5093199;28;20038;-77
2023/05/15 14:27:48;;;;;;;0.20;0.20;;;;;;;;;;5083470;28;20100;-77
2023/05/15 14:30:14;;;;;;;0.20;0.20;;;;;;;;;;5074395;28;20526;-78
2023/05/15 14:32:40;;;;;;;0.20;0.20;;;;;;;;;;5072332;28;20085;-77
2023/05/15 14:35:06;;;;;;;0.22;0.22;;;;;;;;;;5071588;28;20162;-77
2023/05/15 14:37:31;;;;;;;0.20;0.20;;;;;;;;;;5071691;28;20044;-77
2023/05/15 14:39:57;;;;;;;0.20;0.20;;;;;;;;;;5052733;28;20025;-77
2023/05/15 14:42:22;;;;;;;0.20;0.20;;;;;;;;;;5070507;28;20028;-77